createdAt,value
2022-11-06T00:02:07.112Z,92.50
2022-11-06T00:04:33.553Z,92.10
2022-11-06T00:06:59.915Z,92.07
2022-11-06T00:09:26.266Z,91.91
2022-11-06T00:11:53.076Z,91.88
2022-11-06T00:14:19.717Z,92.32
2022-11-06T00:16:47.350Z,92.29
2022-11-06T00:19:14.800Z,92.41
2022-11-06T00:21:41.397Z,92.62
2022-11-06T00:24:09.425Z,92.56
2022-11-06T00:26:36.313Z,92.59
2022-11-06T00:29:04.014Z,92.55
2022-11-06T00:31:33.156Z,92.46
2022-11-06T00:34:01.014Z,92.43
2022-11-06T00:36:30.428Z,92.43
2022-11-06T00:38:57.703Z,92.29
2022-11-06T00:41:24.906Z,92.38
2022-11-06T00:43:53.474Z,92.25
2022-11-06T00:46:20.041Z,92.38
2022-11-06T00:48:46.708Z,92.63
2022-11-06T00:51:19.286Z,92.74
2022-11-06T00:53:46.109Z,92.49
2022-11-06T00:56:16.148Z,92.53
2022-11-06T00:58:43.663Z,92.59
2022-11-06T01:01:15.573Z,92.56
2022-11-06T01:03:45.840Z,92.75
2022-11-06T01:06:18.364Z,92.68
2022-11-06T01:08:46.057Z,93.00
2022-11-06T01:11:15.614Z,92.98
2022-11-06T01:13:42.576Z,93.02
2022-11-06T01:16:14.541Z,93.14
2022-11-06T01:18:42.503Z,92.96
2022-11-06T01:21:12.582Z,93.19
2022-11-06T01:23:38.993Z,93.38
2022-11-06T01:26:08.725Z,93.00
2022-11-06T01:28:35.144Z,93.20
2022-11-06T01:31:10.000Z,93.21
2022-11-06T01:33:36.732Z,93.17
2022-11-06T01:36:03.631Z,93.39
2022-11-06T01:38:30.069Z,93.48
2022-11-06T01:40:56.581Z,93.35
2022-11-06T01:43:51.157Z,93.29
2022-11-06T01:46:19.300Z,93.09
2022-11-06T01:48:51.322Z,92.92
2022-11-06T01:51:17.779Z,92.79
2022-11-06T01:53:44.538Z,93.03
2022-11-06T01:56:12.917Z,93.06
2022-11-06T01:58:43.510Z,92.96
2022-11-06T02:01:10.243Z,93.14
2022-11-06T02:03:38.770Z,93.28
2022-11-06T02:06:08.007Z,93.07
2022-11-06T02:08:34.794Z,93.22
2022-11-06T02:11:02.024Z,92.98
2022-11-06T02:13:58.731Z,93.06
2022-11-06T02:16:39.045Z,92.90
2022-11-06T02:19:34.082Z,92.88
2022-11-06T02:22:28.417Z,92.82
2022-11-06T02:25:17.654Z,92.94
2022-11-06T02:27:54.215Z,93.07
2022-11-06T02:30:20.732Z,93.14
2022-11-06T02:33:24.750Z,93.16
2022-11-06T02:35:57.349Z,93.29
2022-11-06T02:38:30.381Z,93.31
2022-11-06T02:40:59.789Z,93.20
2022-11-06T02:43:37.352Z,93.06
2022-11-06T02:46:09.941Z,92.97
2022-11-06T02:48:45.833Z,92.99
2022-11-06T02:51:16.055Z,93.05
2022-11-06T02:53:45.614Z,92.79
2022-11-06T02:56:16.616Z,92.90
2022-11-06T02:58:55.269Z,92.92
2022-11-06T03:01:29.834Z,92.92
2022-11-06T03:04:03.033Z,92.87
2022-11-06T03:06:58.999Z,92.86
2022-11-06T03:09:31.731Z,93.02
2022-11-06T03:12:04.731Z,93.11
2022-11-06T03:14:42.687Z,92.70
2022-11-06T03:17:17.540Z,92.63
2022-11-06T03:19:54.114Z,92.73
2022-11-06T03:22:30.581Z,92.83
2022-11-06T03:25:02.659Z,92.84
2022-11-06T03:27:35.807Z,93.27
2022-11-06T03:30:06.621Z,92.96
2022-11-06T03:32:41.573Z,92.70
2022-11-06T03:35:19.753Z,92.42
2022-11-06T03:38:05.267Z,92.82
2022-11-06T03:40:37.584Z,92.82
2022-11-06T03:43:07.700Z,92.99
2022-11-06T03:45:36.154Z,92.61
2022-11-06T03:48:15.149Z,92.73
2022-11-06T03:50:51.264Z,92.89
2022-11-06T03:53:32.397Z,93.05
2022-11-06T03:56:07.343Z,93.29
2022-11-06T03:58:38.500Z,93.54
2022-11-06T04:01:08.548Z,93.72
2022-11-06T04:03:45.124Z,94.05
2022-11-06T04:06:27.217Z,93.87
2022-11-06T04:09:16.570Z,94.30
2022-11-06T04:12:04.270Z,94.37
2022-11-06T04:14:34.144Z,94.32
2022-11-06T04:17:04.779Z,94.23
2022-11-06T04:19:31.165Z,94.11
2022-11-06T04:22:20.870Z,93.96
2022-11-06T04:25:24.493Z,94.03
2022-11-06T04:28:08.639Z,93.83
2022-11-06T04:31:06.882Z,93.65
2022-11-06T04:34:22.662Z,93.71
2022-11-06T04:36:55.953Z,93.86
2022-11-06T04:39:42.699Z,93.57
2022-11-06T04:42:24.052Z,93.59
2022-11-06T04:44:55.473Z,93.63
2022-11-06T04:47:23.775Z,93.65
2022-11-06T04:49:53.661Z,93.41
2022-11-06T04:52:25.223Z,93.38
2022-11-06T04:54:53.154Z,93.44
2022-11-06T04:57:19.558Z,93.38
2022-11-06T04:59:45.901Z,93.57
2022-11-06T05:02:12.286Z,93.45
2022-11-06T05:04:38.719Z,92.96
2022-11-06T05:07:05.121Z,93.37
2022-11-06T05:09:31.565Z,93.19
2022-11-06T05:11:57.912Z,93.13
2022-11-06T05:14:24.256Z,92.99
2022-11-06T05:16:50.694Z,92.94
2022-11-06T05:19:17.033Z,92.71
2022-11-06T05:22:02.027Z,92.42
2022-11-06T05:24:28.608Z,92.72
2022-11-06T05:26:59.283Z,92.48
2022-11-06T05:29:26.443Z,92.76
2022-11-06T05:31:52.888Z,92.85
2022-11-06T05:34:19.268Z,93.03
2022-11-06T05:36:45.607Z,92.59
2022-11-06T05:39:12.024Z,92.56
2022-11-06T05:41:38.439Z,92.40
2022-11-06T05:44:05.102Z,92.55
2022-11-06T05:46:49.602Z,92.68
2022-11-06T05:49:18.155Z,92.82
2022-11-06T05:51:44.573Z,92.54
2022-11-06T05:54:10.970Z,92.57
2022-11-06T05:56:37.335Z,92.57
2022-11-06T05:59:03.698Z,92.29
2022-11-06T06:01:30.414Z,92.39
2022-11-06T06:03:57.022Z,92.52
2022-11-06T06:06:23.499Z,92.58
2022-11-06T06:08:49.846Z,92.15
2022-11-06T06:11:16.186Z,92.37
2022-11-06T06:13:42.549Z,92.44
2022-11-06T06:16:08.957Z,92.67
2022-11-06T06:18:35.307Z,92.40
2022-11-06T06:21:01.657Z,92.36
2022-11-06T06:23:28.080Z,92.24
2022-11-06T06:25:54.412Z,92.32
2022-11-06T06:28:20.826Z,92.48
2022-11-06T06:30:47.151Z,92.62
2022-11-06T06:33:13.592Z,92.70
2022-11-06T06:35:39.956Z,92.68
2022-11-06T06:38:06.482Z,92.81
2022-11-06T06:40:32.835Z,92.58
2022-11-06T06:42:59.211Z,92.66
2022-11-06T06:45:26.751Z,92.89
2022-11-06T06:47:53.168Z,92.55
2022-11-06T06:50:20.033Z,92.78
2022-11-06T06:52:47.324Z,92.63
2022-11-06T06:55:14.028Z,92.82
2022-11-06T06:57:40.367Z,92.88
2022-11-06T07:00:07.473Z,93.12
2022-11-06T07:02:33.906Z,93.64
2022-11-06T07:05:00.333Z,94.41
2022-11-06T07:07:26.688Z,94.94
2022-11-06T07:09:53.026Z,95.49
2022-11-06T07:12:19.407Z,96.03
2022-11-06T07:14:46.235Z,96.48
2022-11-06T07:17:12.586Z,96.15
2022-11-06T07:19:39.037Z,96.58
2022-11-06T07:22:05.393Z,96.49
2022-11-06T07:24:31.754Z,96.69
2022-11-06T07:26:58.102Z,96.77
2022-11-06T07:29:24.515Z,96.57
2022-11-06T07:31:50.858Z,96.58
2022-11-06T07:34:17.194Z,95.92
2022-11-06T07:36:43.598Z,95.90
2022-11-06T07:39:10.191Z,95.95
2022-11-06T07:41:37.678Z,95.97
2022-11-06T07:44:04.132Z,95.90
2022-11-06T07:46:30.477Z,95.75
2022-11-06T07:48:56.797Z,95.74
2022-11-06T07:51:23.153Z,95.64
2022-11-06T07:53:49.525Z,95.44
2022-11-06T07:56:16.290Z,95.37
2022-11-06T07:58:42.624Z,95.14
2022-11-06T08:01:18.133Z,95.19
2022-11-06T08:03:45.385Z,95.06
2022-11-06T08:06:12.060Z,94.41
2022-11-06T08:08:38.469Z,94.15
2022-11-06T08:11:06.944Z,94.16
2022-11-06T08:13:36.703Z,93.88
2022-11-06T08:16:05.057Z,93.49
2022-11-06T08:18:31.440Z,92.48
2022-11-06T08:20:57.802Z,92.70
2022-11-06T08:23:24.142Z,92.82
2022-11-06T08:25:54.629Z,92.28
2022-11-06T08:28:21.215Z,92.15
2022-11-06T08:30:47.545Z,92.00
2022-11-06T08:33:14.027Z,92.10
2022-11-06T08:35:40.461Z,91.52
2022-11-06T08:38:07.062Z,91.41
2022-11-06T08:40:33.547Z,91.42
2022-11-06T08:43:05.529Z,90.96
2022-11-06T08:45:32.343Z,89.87
2022-11-06T08:48:03.079Z,89.58
2022-11-06T08:50:31.141Z,88.00
2022-11-06T08:52:58.948Z,87.95
2022-11-06T08:55:25.342Z,86.38
2022-11-06T08:57:54.516Z,86.66
2022-11-06T09:00:20.998Z,86.67
2022-11-06T09:02:47.377Z,86.46
2022-11-06T09:05:13.745Z,86.92
2022-11-06T09:07:40.158Z,86.83
2022-11-06T09:10:06.950Z,86.42
2022-11-06T09:12:33.538Z,84.94
2022-11-06T09:15:00.337Z,85.48
2022-11-06T09:17:26.698Z,84.89
2022-11-06T09:19:53.880Z,85.21
2022-11-06T09:22:20.225Z,85.54
2022-11-06T09:25:04.090Z,85.48
2022-11-06T09:27:31.176Z,85.89
2022-11-06T09:29:57.617Z,85.28
2022-11-06T09:32:24.527Z,84.61
2022-11-06T09:34:51.088Z,84.71
2022-11-06T09:37:17.492Z,83.97
2022-11-06T09:39:44.041Z,83.26
2022-11-06T09:42:33.113Z,83.77
2022-11-06T09:45:11.208Z,83.48
2022-11-06T09:47:41.640Z,82.98
2022-11-06T09:50:17.118Z,83.64
2022-11-06T09:52:55.133Z,83.86
2022-11-06T09:55:27.939Z,82.64
2022-11-06T09:57:58.488Z,83.44
2022-11-06T10:00:25.275Z,82.23
2022-11-06T10:02:55.661Z,82.97
2022-11-06T10:05:37.948Z,82.58
2022-11-06T10:08:22.260Z,82.03
2022-11-06T10:11:16.904Z,82.33
2022-11-06T10:14:01.628Z,82.27
2022-11-06T10:17:00.943Z,82.42
2022-11-06T10:19:54.275Z,83.14
2022-11-06T10:22:36.266Z,83.50
2022-11-06T10:25:30.253Z,83.00
2022-11-06T10:28:11.781Z,82.94
2022-11-06T10:30:51.622Z,82.85
2022-11-06T10:33:43.745Z,82.23
2022-11-06T10:36:16.453Z,83.32
2022-11-06T10:38:47.145Z,83.42
2022-11-06T10:41:18.502Z,83.67
2022-11-06T10:43:53.512Z,83.56
2022-11-06T10:46:38.707Z,83.58
2022-11-06T10:49:15.515Z,83.92
2022-11-06T10:51:56.465Z,83.81
2022-11-06T10:54:38.343Z,84.32
2022-11-06T10:57:11.079Z,85.26
2022-11-06T10:59:37.568Z,85.69
2022-11-06T11:02:05.389Z,87.19
2022-11-06T11:04:32.613Z,86.95
2022-11-06T11:07:20.453Z,87.40
2022-11-06T11:09:49.647Z,86.54
2022-11-06T11:12:22.483Z,87.33
2022-11-06T11:15:17.591Z,87.30
2022-11-06T11:18:16.376Z,87.08
2022-11-06T11:20:48.407Z,87.01
2022-11-06T11:23:24.933Z,87.29
2022-11-06T11:25:53.410Z,85.51
2022-11-06T11:28:28.310Z,86.39
2022-11-06T11:31:07.102Z,86.40
2022-11-06T11:33:34.225Z,86.09
2022-11-06T11:36:02.261Z,85.44
2022-11-06T11:38:29.470Z,85.23
2022-11-06T11:41:29.665Z,85.07
2022-11-06T11:44:11.228Z,84.89
2022-11-06T11:46:52.317Z,84.25
2022-11-06T11:49:27.869Z,83.54
2022-11-06T11:51:55.310Z,83.26
2022-11-06T11:54:26.176Z,83.16
2022-11-06T11:57:04.649Z,82.31
2022-11-06T11:59:44.409Z,82.35
2022-11-06T12:02:36.186Z,80.89
2022-11-06T12:05:09.318Z,82.22
2022-11-06T12:07:43.418Z,82.04
2022-11-06T12:10:28.069Z,80.67
2022-11-06T12:12:56.299Z,80.57
2022-11-06T12:15:38.621Z,81.33
2022-11-06T12:18:19.524Z,80.98
2022-11-06T12:21:04.336Z,80.04
2022-11-06T12:23:40.879Z,79.33
2022-11-06T12:26:29.495Z,80.40
2022-11-06T12:29:05.363Z,79.75
2022-11-06T12:31:37.602Z,80.14
2022-11-06T12:34:10.887Z,79.33
2022-11-06T12:36:46.080Z,79.63
2022-11-06T12:39:20.598Z,79.62
2022-11-06T12:41:50.666Z,79.90
2022-11-06T12:44:17.789Z,78.88
2022-11-06T12:47:22.674Z,79.42
2022-11-06T12:50:07.396Z,79.49
2022-11-06T12:52:45.871Z,78.83
2022-11-06T12:55:12.147Z,79.60
2022-11-06T12:57:51.259Z,79.81
2022-11-06T13:00:30.136Z,78.99
2022-11-06T13:03:04.201Z,79.93
2022-11-06T13:05:55.495Z,80.37
2022-11-06T13:08:47.078Z,80.48
2022-11-06T13:11:13.342Z,81.19
2022-11-06T13:13:52.141Z,80.27
2022-11-06T13:16:39.567Z,81.32
2022-11-06T13:19:19.871Z,81.38
2022-11-06T13:21:52.280Z,81.15
2022-11-06T13:24:28.796Z,81.94
2022-11-06T13:27:36.730Z,81.61
2022-11-06T13:30:14.413Z,79.87
2022-11-06T13:32:43.894Z,79.96
2022-11-06T13:35:21.246Z,79.55
2022-11-06T13:37:50.000Z,79.86
2022-11-06T13:40:28.233Z,81.30
2022-11-06T13:43:10.355Z,81.79
2022-11-06T13:46:08.006Z,82.81
2022-11-06T13:48:37.721Z,83.06
2022-11-06T13:51:15.349Z,83.53
2022-11-06T13:54:07.442Z,84.61
2022-11-06T13:56:55.131Z,85.15
2022-11-06T13:59:59.141Z,85.89
2022-11-06T14:03:04.088Z,86.36
2022-11-06T14:05:45.731Z,87.23
2022-11-06T14:08:18.061Z,87.96
2022-11-06T14:10:53.031Z,88.44
2022-11-06T14:13:25.119Z,89.18
2022-11-06T14:15:59.746Z,89.86
2022-11-06T14:18:26.203Z,90.05
2022-11-06T14:21:43.948Z,90.83
2022-11-06T14:24:19.509Z,90.69
2022-11-06T14:26:48.606Z,91.19
2022-11-06T14:29:27.302Z,91.70
2022-11-06T14:32:00.384Z,91.99
2022-11-06T14:34:33.161Z,92.28
2022-11-06T14:37:19.956Z,91.97
2022-11-06T14:39:52.871Z,92.31
2022-11-06T14:42:30.217Z,92.55
2022-11-06T14:45:08.338Z,92.52
2022-11-06T14:47:58.330Z,92.88
2022-11-06T14:50:27.647Z,93.15
2022-11-06T14:53:07.665Z,93.35
2022-11-06T14:55:45.630Z,93.47
2022-11-06T14:58:26.183Z,93.67
2022-11-06T15:00:58.676Z,94.05
2022-11-06T15:03:54.429Z,94.15
2022-11-06T15:06:33.084Z,94.35
2022-11-06T15:09:03.467Z,94.79
2022-11-06T15:11:29.752Z,94.78
2022-11-06T15:14:02.046Z,95.00
2022-11-06T15:16:44.922Z,94.98
2022-11-06T15:19:19.374Z,94.71
2022-11-06T15:21:50.340Z,95.15
2022-11-06T15:24:31.120Z,95.03
2022-11-06T15:27:04.814Z,95.20
2022-11-06T15:29:37.703Z,95.69
2022-11-06T15:32:18.676Z,95.40
2022-11-06T15:34:59.088Z,95.64
2022-11-06T15:37:30.629Z,95.73
2022-11-06T15:40:01.347Z,95.80
2022-11-06T15:42:31.727Z,96.01
2022-11-06T15:45:29.212Z,96.24
2022-11-06T15:48:01.586Z,96.31
2022-11-06T15:50:31.410Z,96.66
2022-11-06T15:53:13.456Z,96.75
2022-11-06T15:56:00.292Z,96.96
2022-11-06T15:58:33.448Z,96.77
2022-11-06T16:01:01.793Z,96.66
2022-11-06T16:03:31.995Z,95.10
2022-11-06T16:06:01.762Z,94.97
2022-11-06T16:08:31.135Z,95.47
2022-11-06T16:10:58.637Z,95.84
2022-11-06T16:13:25.996Z,96.03
2022-11-06T16:15:53.640Z,96.54
2022-11-06T16:18:28.542Z,96.68
2022-11-06T16:21:18.874Z,96.71
2022-11-06T16:23:49.625Z,96.95
2022-11-06T16:26:23.040Z,96.77
2022-11-06T16:28:51.228Z,96.71
2022-11-06T16:31:20.630Z,96.65
2022-11-06T16:33:58.428Z,96.63
2022-11-06T16:36:26.454Z,96.68
2022-11-06T16:38:53.843Z,97.15
2022-11-06T16:41:41.098Z,97.03
2022-11-06T16:44:31.722Z,96.82
2022-11-06T16:47:04.547Z,96.84
2022-11-06T16:49:33.437Z,96.93
2022-11-06T16:52:00.233Z,97.15
2022-11-06T16:54:28.800Z,96.95
2022-11-06T16:56:55.981Z,97.22
2022-11-06T16:59:26.186Z,97.50
2022-11-06T17:01:52.795Z,97.00
2022-11-06T17:04:26.275Z,97.24
2022-11-06T17:06:53.750Z,97.50
2022-11-06T17:09:23.091Z,97.82
2022-11-06T17:11:53.815Z,97.88
2022-11-06T17:14:21.145Z,97.97
2022-11-06T17:16:50.586Z,97.90
2022-11-06T17:19:18.617Z,97.74
2022-11-06T17:21:45.774Z,98.01
2022-11-06T17:24:35.423Z,98.00
2022-11-06T17:26:58.777Z,97.94
2022-11-06T17:29:25.111Z,97.94
2022-11-06T17:31:51.836Z,98.08
2022-11-06T17:34:18.212Z,98.47
2022-11-06T17:36:44.609Z,98.38
2022-11-06T17:39:10.970Z,98.39
2022-11-06T17:41:37.347Z,98.61
2022-11-06T17:44:11.154Z,98.73
2022-11-06T17:46:43.310Z,98.84
2022-11-06T17:49:16.777Z,99.14
2022-11-06T17:51:52.595Z,99.37
2022-11-06T17:54:21.743Z,99.30
2022-11-06T17:56:49.765Z,99.44
2022-11-06T17:59:16.219Z,99.51
2022-11-06T18:01:43.124Z,99.56
2022-11-06T18:04:09.974Z,99.42
2022-11-06T18:06:36.380Z,99.92
2022-11-06T18:09:05.391Z,100.00
2022-11-06T18:11:31.809Z,100.00
2022-11-06T18:13:58.175Z,100.00
2022-11-06T18:16:30.163Z,100.00
2022-11-06T18:18:57.333Z,100.00
2022-11-06T18:21:23.931Z,100.00
2022-11-06T18:23:50.637Z,100.00
2022-11-06T18:26:18.198Z,100.00
2022-11-06T18:28:44.557Z,100.00
2022-11-06T18:31:10.902Z,100.00
2022-11-06T18:33:37.222Z,100.00
2022-11-06T18:36:06.364Z,100.00
2022-11-06T18:38:33.319Z,100.00
2022-11-06T18:41:06.079Z,100.00
2022-11-06T18:43:32.444Z,100.00
2022-11-06T18:45:58.790Z,100.00
2022-11-06T18:48:25.436Z,100.00
2022-11-06T18:50:52.104Z,100.00
2022-11-06T18:53:18.501Z,100.00
2022-11-06T18:55:45.917Z,100.00
2022-11-06T18:58:12.758Z,100.00
2022-11-06T19:00:39.444Z,100.00
2022-11-06T19:03:06.155Z,100.00
2022-11-06T19:05:34.123Z,100.00
2022-11-06T19:08:01.552Z,100.00
2022-11-06T19:10:29.397Z,100.00
2022-11-06T19:12:59.290Z,100.00
2022-11-06T19:15:26.334Z,100.00
2022-11-06T19:17:54.596Z,100.00
2022-11-06T19:20:21.587Z,100.00
2022-11-06T19:22:52.165Z,100.00
2022-11-06T19:25:19.522Z,100.00
2022-11-06T19:27:47.334Z,100.00
2022-11-06T19:30:15.349Z,100.00
2022-11-06T19:32:42.238Z,100.00
2022-11-06T19:35:09.324Z,100.00
2022-11-06T19:37:37.220Z,100.00
2022-11-06T19:40:06.079Z,100.00
2022-11-06T19:42:33.047Z,100.00
2022-11-06T19:45:00.145Z,100.00
2022-11-06T19:47:28.068Z,100.00
2022-11-06T19:49:54.533Z,100.00
2022-11-06T19:52:41.790Z,100.00
2022-11-06T19:55:25.924Z,100.00
2022-11-06T19:57:53.729Z,100.00
2022-11-06T20:00:20.233Z,100.00
2022-11-06T20:02:49.971Z,100.00
2022-11-06T20:05:16.427Z,100.00
2022-11-06T20:07:42.762Z,100.00
2022-11-06T20:10:09.232Z,100.00
2022-11-06T20:12:35.780Z,100.00
2022-11-06T20:15:02.122Z,100.00
2022-11-06T20:17:28.477Z,100.00
2022-11-06T20:19:54.853Z,100.00
2022-11-06T20:22:21.272Z,100.00
2022-11-06T20:24:47.667Z,100.00
2022-11-06T20:27:14.162Z,100.00
2022-11-06T20:29:40.533Z,100.00
2022-11-06T20:32:06.911Z,100.00
2022-11-06T20:34:33.293Z,100.00
2022-11-06T20:36:59.681Z,100.00
2022-11-06T20:39:26.088Z,100.00
2022-11-06T20:41:52.781Z,100.00
2022-11-06T20:44:19.198Z,100.00
2022-11-06T20:46:47.838Z,100.00
2022-11-06T20:49:14.668Z,100.00
2022-11-06T20:52:07.340Z,100.00
2022-11-06T20:54:27.443Z,100.00
2022-11-06T20:56:53.826Z,100.00
2022-11-06T20:59:20.216Z,100.00
2022-11-06T21:01:46.833Z,100.00
2022-11-06T21:04:13.535Z,100.00
2022-11-06T21:06:39.957Z,100.00
2022-11-06T21:09:07.654Z,100.00
2022-11-06T21:11:35.020Z,100.00
2022-11-06T21:14:01.703Z,100.00
2022-11-06T21:16:34.479Z,100.00
2022-11-06T21:19:02.025Z,100.00
2022-11-06T21:21:32.873Z,100.00
2022-11-06T21:24:01.453Z,100.00
2022-11-06T21:26:30.436Z,100.00
2022-11-06T21:28:57.532Z,100.00
2022-11-06T21:31:27.138Z,100.00
2022-11-06T21:33:56.184Z,100.00
2022-11-06T21:36:27.714Z,100.00
2022-11-06T21:38:56.774Z,100.00
2022-11-06T21:41:25.097Z,100.00
2022-11-06T21:43:51.613Z,100.00
2022-11-06T21:46:18.558Z,100.00
2022-11-06T21:48:46.827Z,100.00
2022-11-06T21:51:20.972Z,100.00
2022-11-06T21:54:06.682Z,100.00
2022-11-06T21:56:34.067Z,100.00
2022-11-06T21:59:02.671Z,100.00
2022-11-06T22:01:30.559Z,100.00
2022-11-06T22:03:57.051Z,100.00
2022-11-06T22:06:25.380Z,100.00
2022-11-06T22:08:53.541Z,100.00
2022-11-06T22:11:23.111Z,100.00
2022-11-06T22:13:50.952Z,100.00
2022-11-06T22:16:19.989Z,100.00
2022-11-06T22:18:46.402Z,100.00
2022-11-06T22:21:15.879Z,100.00
2022-11-06T22:23:42.371Z,100.00
2022-11-06T22:26:12.086Z,100.00
2022-11-06T22:28:39.214Z,100.00
2022-11-06T22:31:05.815Z,100.00
2022-11-06T22:33:33.176Z,100.00
2022-11-06T22:36:11.471Z,100.00
2022-11-06T22:38:38.777Z,100.00
2022-11-06T22:41:06.758Z,100.00
2022-11-06T22:43:33.623Z,100.00
2022-11-06T22:46:01.077Z,100.00
2022-11-06T22:48:28.752Z,100.00
2022-11-06T22:50:55.271Z,100.00
2022-11-06T22:53:22.364Z,100.00
2022-11-06T22:55:48.771Z,100.00
2022-11-06T22:58:15.123Z,100.00
2022-11-06T23:00:41.482Z,100.00
2022-11-06T23:03:07.895Z,100.00
2022-11-06T23:05:38.675Z,100.00
2022-11-06T23:08:05.401Z,100.00
2022-11-06T23:10:34.001Z,100.00
2022-11-06T23:13:00.522Z,100.00
2022-11-06T23:15:26.884Z,100.00
2022-11-06T23:17:53.272Z,100.00
2022-11-06T23:20:20.357Z,100.00
2022-11-06T23:22:47.266Z,100.00
2022-11-06T23:25:14.386Z,100.00
2022-11-06T23:27:47.035Z,100.00
2022-11-06T23:30:15.920Z,100.00
2022-11-06T23:32:42.855Z,100.00
2022-11-06T23:35:13.515Z,100.00
2022-11-06T23:37:41.443Z,100.00
2022-11-06T23:40:09.507Z,100.00
2022-11-06T23:42:36.580Z,100.00
2022-11-06T23:45:23.486Z,100.00
2022-11-06T23:47:50.491Z,100.00
2022-11-06T23:50:17.638Z,100.00
2022-11-06T23:52:44.744Z,100.00
2022-11-06T23:55:11.493Z,100.00
2022-11-06T23:57:38.079Z,100.00
